sensor_id;sensor_type;location;lat;lon;timestamp;temperature;humidity
44069;DHT22;29738;51.234;5.484;2022-10-04T00:01:31;12.60;99.90
44069;DHT22;29738;51.234;5.484;2022-10-04T00:04:05;12.50;99.90
44069;DHT22;29738;51.234;5.484;2022-10-04T00:06:33;12.50;99.90
44069;DHT22;29738;51.234;5.484;2022-10-04T00:09:07;12.50;99.90
44069;DHT22;29738;51.234;5.484;2022-10-04T00:11:37;12.40;99.90
44069;DHT22;29738;51.234;5.484;2022-10-04T00:16:50;12.30;99.90
44069;DHT22;29738;51.234;5.484;2022-10-04T00:52:11;12.00;99.90
44069;DHT22;29738;51.234;5.484;2022-10-04T00:54:41;12.00;99.90
44069;DHT22;29738;51.234;5.484;2022-10-04T00:57:14;11.90;99.90
44069;DHT22;29738;51.234;5.484;2022-10-04T00:59:47;11.90;99.90
44069;DHT22;29738;51.234;5.484;2022-10-04T01:04:53;11.90;99.90
44069;DHT22;29738;51.234;5.484;2022-10-04T01:07:43;11.80;99.90
44069;DHT22;29738;51.234;5.484;2022-10-04T01:10:20;11.70;99.90
44069;DHT22;29738;51.234;5.484;2022-10-04T01:15:47;11.70;99.90
44069;DHT22;29738;51.234;5.484;2022-10-04T01:18:26;11.70;99.90
44069;DHT22;29738;51.234;5.484;2022-10-04T01:21:02;11.60;99.90
44069;DHT22;29738;51.234;5.484;2022-10-04T01:29:15;11.80;99.90
44069;DHT22;29738;51.234;5.484;2022-10-04T01:31:47;11.80;99.90
44069;DHT22;29738;51.234;5.484;2022-10-04T01:34:19;11.80;99.90
44069;DHT22;29738;51.234;5.484;2022-10-04T01:36:46;11.60;99.90
44069;DHT22;29738;51.234;5.484;2022-10-04T01:39:15;11.80;99.90
44069;DHT22;29738;51.234;5.484;2022-10-04T01:44:46;11.60;99.90
44069;DHT22;29738;51.234;5.484;2022-10-04T01:50:08;11.70;99.90
44069;DHT22;29738;51.234;5.484;2022-10-04T01:52:41;11.60;99.90
44069;DHT22;29738;51.234;5.484;2022-10-04T01:55:13;11.60;99.90
44069;DHT22;29738;51.234;5.484;2022-10-04T01:57:45;11.60;99.90
44069;DHT22;29738;51.234;5.484;2022-10-04T02:00:13;11.70;99.90
44069;DHT22;29738;51.234;5.484;2022-10-04T02:03:01;11.70;99.90
44069;DHT22;29738;51.234;5.484;2022-10-04T02:05:35;11.60;99.90
44069;DHT22;29738;51.234;5.484;2022-10-04T02:08:08;11.70;99.90
44069;DHT22;29738;51.234;5.484;2022-10-04T02:10:36;11.40;99.90
44069;DHT22;29738;51.234;5.484;2022-10-04T02:13:07;11.40;99.90
44069;DHT22;29738;51.234;5.484;2022-10-04T02:15:35;11.50;99.90
44069;DHT22;29738;51.234;5.484;2022-10-04T02:18:18;11.50;99.90
44069;DHT22;29738;51.234;5.484;2022-10-04T02:20:49;11.50;99.90
44069;DHT22;29738;51.234;5.484;2022-10-04T02:23:19;11.40;99.90
44069;DHT22;29738;51.234;5.484;2022-10-04T02:25:46;11.40;99.90
44069;DHT22;29738;51.234;5.484;2022-10-04T02:28:12;11.30;99.90
44069;DHT22;29738;51.234;5.484;2022-10-04T02:30:50;11.10;99.90
44069;DHT22;29738;51.234;5.484;2022-10-04T02:33:42;11.00;99.90
44069;DHT22;29738;51.234;5.484;2022-10-04T02:36:10;11.20;99.90
44069;DHT22;29738;51.234;5.484;2022-10-04T02:38:53;11.00;99.90
44069;DHT22;29738;51.234;5.484;2022-10-04T02:44:01;11.10;99.90
44069;DHT22;29738;51.234;5.484;2022-10-04T02:46:35;11.20;99.90
44069;DHT22;29738;51.234;5.484;2022-10-04T02:49:30;11.10;99.90
44069;DHT22;29738;51.234;5.484;2022-10-04T02:52:09;11.00;99.90
44069;DHT22;29738;51.234;5.484;2022-10-04T02:57:18;11.00;99.90
44069;DHT22;29738;51.234;5.484;2022-10-04T02:59:45;11.10;99.90
44069;DHT22;29738;51.234;5.484;2022-10-04T03:02:24;11.20;99.90
44069;DHT22;29738;51.234;5.484;2022-10-04T03:04:52;11.20;99.90
44069;DHT22;29738;51.234;5.484;2022-10-04T03:07:20;10.90;99.90
44069;DHT22;29738;51.234;5.484;2022-10-04T03:09:47;11.00;99.90
44069;DHT22;29738;51.234;5.484;2022-10-04T03:12:14;11.10;99.90
44069;DHT22;29738;51.234;5.484;2022-10-04T03:14:41;11.10;99.90
44069;DHT22;29738;51.234;5.484;2022-10-04T03:17:07;11.00;99.90
44069;DHT22;29738;51.234;5.484;2022-10-04T03:19:34;11.00;99.90
44069;DHT22;29738;51.234;5.484;2022-10-04T03:24:49;10.90;99.90
44069;DHT22;29738;51.234;5.484;2022-10-04T03:27:24;10.90;99.90
44069;DHT22;29738;51.234;5.484;2022-10-04T03:29:52;10.90;99.90
44069;DHT22;29738;51.234;5.484;2022-10-04T03:32:19;10.80;99.90
44069;DHT22;29738;51.234;5.484;2022-10-04T03:34:57;10.70;99.90
44069;DHT22;29738;51.234;5.484;2022-10-04T03:37:24;10.70;99.90
44069;DHT22;29738;51.234;5.484;2022-10-04T03:39:54;10.80;99.90
44069;DHT22;29738;51.234;5.484;2022-10-04T03:42:22;10.70;99.90
44069;DHT22;29738;51.234;5.484;2022-10-04T03:44:51;10.70;99.90
44069;DHT22;29738;51.234;5.484;2022-10-04T03:47:28;10.60;99.90
44069;DHT22;29738;51.234;5.484;2022-10-04T03:49:59;10.60;99.90
44069;DHT22;29738;51.234;5.484;2022-10-04T03:52:31;10.50;99.90
44069;DHT22;29738;51.234;5.484;2022-10-04T03:55:01;10.50;99.90
44069;DHT22;29738;51.234;5.484;2022-10-04T03:57:28;10.40;99.90
44069;DHT22;29738;51.234;5.484;2022-10-04T03:59:55;10.50;99.90
44069;DHT22;29738;51.234;5.484;2022-10-04T04:02:37;10.70;99.90
44069;DHT22;29738;51.234;5.484;2022-10-04T04:05:21;10.80;99.90
44069;DHT22;29738;51.234;5.484;2022-10-04T04:08:06;10.80;99.90
44069;DHT22;29738;51.234;5.484;2022-10-04T04:10:37;10.80;99.90
44069;DHT22;29738;51.234;5.484;2022-10-04T04:16:00;10.70;99.90
44069;DHT22;29738;51.234;5.484;2022-10-04T04:18:31;10.60;99.90
44069;DHT22;29738;51.234;5.484;2022-10-04T04:21:00;10.60;99.90
44069;DHT22;29738;51.234;5.484;2022-10-04T04:23:42;10.50;99.90
44069;DHT22;29738;51.234;5.484;2022-10-04T04:26:44;10.50;99.90
44069;DHT22;29738;51.234;5.484;2022-10-04T04:29:23;10.40;99.90
44069;DHT22;29738;51.234;5.484;2022-10-04T04:31:51;10.30;99.90
44069;DHT22;29738;51.234;5.484;2022-10-04T04:34:26;10.30;99.90
44069;DHT22;29738;51.234;5.484;2022-10-04T04:36:59;10.30;99.90
44069;DHT22;29738;51.234;5.484;2022-10-04T04:39:25;10.30;99.90
44069;DHT22;29738;51.234;5.484;2022-10-04T04:42:28;10.20;99.90
44069;DHT22;29738;51.234;5.484;2022-10-04T04:44:59;10.30;99.90
44069;DHT22;29738;51.234;5.484;2022-10-04T04:47:27;10.30;99.90
44069;DHT22;29738;51.234;5.484;2022-10-04T04:49:56;10.20;99.90
44069;DHT22;29738;51.234;5.484;2022-10-04T04:52:26;10.30;99.90
44069;DHT22;29738;51.234;5.484;2022-10-04T04:54:54;10.40;99.90
44069;DHT22;29738;51.234;5.484;2022-10-04T04:57:20;10.40;99.90
44069;DHT22;29738;51.234;5.484;2022-10-04T04:59:50;10.20;99.90
44069;DHT22;29738;51.234;5.484;2022-10-04T05:02:50;10.30;99.90
44069;DHT22;29738;51.234;5.484;2022-10-04T05:05:26;10.30;99.90
44069;DHT22;29738;51.234;5.484;2022-10-04T05:08:23;10.20;99.90
44069;DHT22;29738;51.234;5.484;2022-10-04T05:11:02;10.20;99.90
44069;DHT22;29738;51.234;5.484;2022-10-04T05:13:58;10.20;99.90
44069;DHT22;29738;51.234;5.484;2022-10-04T05:16:27;10.30;99.90
44069;DHT22;29738;51.234;5.484;2022-10-04T05:19:00;10.40;99.90
44069;DHT22;29738;51.234;5.484;2022-10-04T05:21:29;10.10;99.90
44069;DHT22;29738;51.234;5.484;2022-10-04T05:23:58;10.00;99.90
44069;DHT22;29738;51.234;5.484;2022-10-04T05:26:31;10.00;99.90
44069;DHT22;29738;51.234;5.484;2022-10-04T05:29:00;10.10;99.90
44069;DHT22;29738;51.234;5.484;2022-10-04T05:31:41;10.10;99.90
44069;DHT22;29738;51.234;5.484;2022-10-04T05:34:22;10.20;99.90
44069;DHT22;29738;51.234;5.484;2022-10-04T05:42:48;10.30;99.90
44069;DHT22;29738;51.234;5.484;2022-10-04T05:45:23;10.30;99.90
44069;DHT22;29738;51.234;5.484;2022-10-04T05:47:52;10.10;99.90
44069;DHT22;29738;51.234;5.484;2022-10-04T05:50:34;10.10;99.90
44069;DHT22;29738;51.234;5.484;2022-10-04T05:53:25;10.00;99.90
44069;DHT22;29738;51.234;5.484;2022-10-04T06:01:16;10.10;99.90
44069;DHT22;29738;51.234;5.484;2022-10-04T06:04:02;9.90;99.90
44069;DHT22;29738;51.234;5.484;2022-10-04T06:06:49;9.80;99.90
44069;DHT22;29738;51.234;5.484;2022-10-04T06:23:10;10.00;99.90
44069;DHT22;29738;51.234;5.484;2022-10-04T06:25:46;10.20;99.90
44069;DHT22;29738;51.234;5.484;2022-10-04T06:28:26;10.20;99.90
44069;DHT22;29738;51.234;5.484;2022-10-04T06:34:06;10.40;99.90
44069;DHT22;29738;51.234;5.484;2022-10-04T06:47:48;11.00;99.90
44069;DHT22;29738;51.234;5.484;2022-10-04T06:56:02;11.20;99.90
44069;DHT22;29738;51.234;5.484;2022-10-04T07:01:35;11.60;99.90
44069;DHT22;29738;51.234;5.484;2022-10-04T07:09:22;11.70;99.90
44069;DHT22;29738;51.234;5.484;2022-10-04T07:11:54;11.50;99.90
44069;DHT22;29738;51.234;5.484;2022-10-04T07:14:36;11.70;99.90
44069;DHT22;29738;51.234;5.484;2022-10-04T07:17:18;11.50;99.90
44069;DHT22;29738;51.234;5.484;2022-10-04T07:19:49;11.50;99.90
44069;DHT22;29738;51.234;5.484;2022-10-04T07:30:14;11.50;99.90
44069;DHT22;29738;51.234;5.484;2022-10-04T07:32:48;11.40;99.90
44069;DHT22;29738;51.234;5.484;2022-10-04T07:35:33;11.50;99.90
44069;DHT22;29738;51.234;5.484;2022-10-04T07:38:23;11.40;99.90
44069;DHT22;29738;51.234;5.484;2022-10-04T07:41:02;11.50;99.90
44069;DHT22;29738;51.234;5.484;2022-10-04T07:46:13;11.70;99.90
44069;DHT22;29738;51.234;5.484;2022-10-04T07:48:42;11.90;99.90
44069;DHT22;29738;51.234;5.484;2022-10-04T07:54:37;12.20;99.90
44069;DHT22;29738;51.234;5.484;2022-10-04T07:57:16;12.20;99.90
44069;DHT22;29738;51.234;5.484;2022-10-04T08:00:00;12.20;99.90
44069;DHT22;29738;51.234;5.484;2022-10-04T08:02:43;12.30;99.90
44069;DHT22;29738;51.234;5.484;2022-10-04T08:08:18;12.30;99.90
44069;DHT22;29738;51.234;5.484;2022-10-04T08:13:28;12.40;99.90
44069;DHT22;29738;51.234;5.484;2022-10-04T08:16:00;12.60;99.90
44069;DHT22;29738;51.234;5.484;2022-10-04T08:24:56;12.90;99.90
44069;DHT22;29738;51.234;5.484;2022-10-04T08:27:38;13.00;99.90
44069;DHT22;29738;51.234;5.484;2022-10-04T08:30:37;13.10;99.90
44069;DHT22;29738;51.234;5.484;2022-10-04T08:38:55;13.20;99.90
44069;DHT22;29738;51.234;5.484;2022-10-04T08:41:52;13.30;99.90
44069;DHT22;29738;51.234;5.484;2022-10-04T08:50:26;13.40;99.90
44069;DHT22;29738;51.234;5.484;2022-10-04T09:04:36;13.80;99.90
44069;DHT22;29738;51.234;5.484;2022-10-04T09:07:40;13.80;99.90
44069;DHT22;29738;51.234;5.484;2022-10-04T09:16:02;14.00;99.90
44069;DHT22;29738;51.234;5.484;2022-10-04T09:18:51;14.20;99.90
44069;DHT22;29738;51.234;5.484;2022-10-04T09:21:26;14.30;99.90
44069;DHT22;29738;51.234;5.484;2022-10-04T09:26:43;14.30;99.90
44069;DHT22;29738;51.234;5.484;2022-10-04T09:29:33;14.50;99.90
44069;DHT22;29738;51.234;5.484;2022-10-04T09:32:35;14.70;99.90
44069;DHT22;29738;51.234;5.484;2022-10-04T09:35:24;14.60;99.90
44069;DHT22;29738;51.234;5.484;2022-10-04T09:46:43;15.00;99.90
44069;DHT22;29738;51.234;5.484;2022-10-04T09:52:33;15.30;99.90
44069;DHT22;29738;51.234;5.484;2022-10-04T10:00:37;15.30;99.90
44069;DHT22;29738;51.234;5.484;2022-10-04T10:05:52;15.30;99.90
44069;DHT22;29738;51.234;5.484;2022-10-04T10:08:30;15.40;99.90
44069;DHT22;29738;51.234;5.484;2022-10-04T10:11:34;15.50;99.90
44069;DHT22;29738;51.234;5.484;2022-10-04T10:14:47;15.80;99.90
44069;DHT22;29738;51.234;5.484;2022-10-04T10:28:50;15.80;99.90
44069;DHT22;29738;51.234;5.484;2022-10-04T10:34:24;15.90;99.90
44069;DHT22;29738;51.234;5.484;2022-10-04T10:37:07;16.00;99.90
44069;DHT22;29738;51.234;5.484;2022-10-04T10:42:48;16.10;99.90
44069;DHT22;29738;51.234;5.484;2022-10-04T10:48:04;16.60;99.90
44069;DHT22;29738;51.234;5.484;2022-10-04T10:51:08;16.60;99.90
44069;DHT22;29738;51.234;5.484;2022-10-04T10:56:41;16.70;99.90
44069;DHT22;29738;51.234;5.484;2022-10-04T11:16:25;17.50;99.90
44069;DHT22;29738;51.234;5.484;2022-10-04T11:27:45;17.30;99.90
44069;DHT22;29738;51.234;5.484;2022-10-04T11:30:28;17.40;99.90
44069;DHT22;29738;51.234;5.484;2022-10-04T11:38:50;17.60;99.90
44069;DHT22;29738;51.234;5.484;2022-10-04T11:41:40;17.80;99.90
44069;DHT22;29738;51.234;5.484;2022-10-04T11:47:27;17.90;99.90
44069;DHT22;29738;51.234;5.484;2022-10-04T12:01:03;18.10;99.90
44069;DHT22;29738;51.234;5.484;2022-10-04T12:07:32;18.30;99.90
44069;DHT22;29738;51.234;5.484;2022-10-04T12:10:28;18.20;99.90
44069;DHT22;29738;51.234;5.484;2022-10-04T12:12:58;18.20;99.90
44069;DHT22;29738;51.234;5.484;2022-10-04T12:24:08;18.40;99.90
44069;DHT22;29738;51.234;5.484;2022-10-04T12:31:49;18.40;99.90
44069;DHT22;29738;51.234;5.484;2022-10-04T12:37:19;18.50;99.90
44069;DHT22;29738;51.234;5.484;2022-10-04T12:40:18;18.50;99.90
44069;DHT22;29738;51.234;5.484;2022-10-04T12:53:32;18.50;99.90
44069;DHT22;29738;51.234;5.484;2022-10-04T12:56:26;18.50;99.90
44069;DHT22;29738;51.234;5.484;2022-10-04T12:59:14;18.40;99.90
44069;DHT22;29738;51.234;5.484;2022-10-04T13:04:33;18.60;99.90
44069;DHT22;29738;51.234;5.484;2022-10-04T13:15:25;18.50;99.90
44069;DHT22;29738;51.234;5.484;2022-10-04T13:25:49;18.80;99.90
44069;DHT22;29738;51.234;5.484;2022-10-04T13:31:22;18.90;99.90
44069;DHT22;29738;51.234;5.484;2022-10-04T13:39:11;18.60;99.90
44069;DHT22;29738;51.234;5.484;2022-10-04T13:53:11;19.60;99.90
44069;DHT22;29738;51.234;5.484;2022-10-04T13:59:00;19.40;99.90
44069;DHT22;29738;51.234;5.484;2022-10-04T14:09:51;19.30;99.90
44069;DHT22;29738;51.234;5.484;2022-10-04T14:21:03;19.20;99.90
44069;DHT22;29738;51.234;5.484;2022-10-04T14:23:23;19.60;99.90
44069;DHT22;29738;51.234;5.484;2022-10-04T14:28:49;19.80;99.90
44069;DHT22;29738;51.234;5.484;2022-10-04T14:31:34;19.70;99.90
44069;DHT22;29738;51.234;5.484;2022-10-04T14:37:01;19.20;99.90
44069;DHT22;29738;51.234;5.484;2022-10-04T14:39:58;19.40;99.90
44069;DHT22;29738;51.234;5.484;2022-10-04T14:45:37;19.70;99.90
44069;DHT22;29738;51.234;5.484;2022-10-04T14:57:09;19.30;99.90
44069;DHT22;29738;51.234;5.484;2022-10-04T15:11:06;19.60;99.90
44069;DHT22;29738;51.234;5.484;2022-10-04T15:16:36;19.00;99.90
44069;DHT22;29738;51.234;5.484;2022-10-04T15:21:56;18.80;99.90
44069;DHT22;29738;51.234;5.484;2022-10-04T15:24:30;18.80;99.90
44069;DHT22;29738;51.234;5.484;2022-10-04T15:30:02;18.70;99.90
44069;DHT22;29738;51.234;5.484;2022-10-04T15:38:35;18.80;99.90
44069;DHT22;29738;51.234;5.484;2022-10-04T15:41:17;18.80;99.90
44069;DHT22;29738;51.234;5.484;2022-10-04T15:46:41;18.80;99.90
44069;DHT22;29738;51.234;5.484;2022-10-04T15:49:46;18.60;99.90
44069;DHT22;29738;51.234;5.484;2022-10-04T15:55:20;18.90;99.90
44069;DHT22;29738;51.234;5.484;2022-10-04T16:00:24;18.50;99.90
44069;DHT22;29738;51.234;5.484;2022-10-04T16:11:43;18.60;99.90
44069;DHT22;29738;51.234;5.484;2022-10-04T16:14:28;18.50;99.90
44069;DHT22;29738;51.234;5.484;2022-10-04T16:19:56;18.40;99.90
44069;DHT22;29738;51.234;5.484;2022-10-04T16:22:27;18.30;99.90
44069;DHT22;29738;51.234;5.484;2022-10-04T16:28:00;18.30;99.90
44069;DHT22;29738;51.234;5.484;2022-10-04T16:30:47;18.20;99.90
44069;DHT22;29738;51.234;5.484;2022-10-04T16:33:28;18.10;99.90
44069;DHT22;29738;51.234;5.484;2022-10-04T16:36:13;18.10;99.90
44069;DHT22;29738;51.234;5.484;2022-10-04T16:38:48;17.90;99.90
44069;DHT22;29738;51.234;5.484;2022-10-04T16:41:44;17.90;99.90
44069;DHT22;29738;51.234;5.484;2022-10-04T16:47:01;18.50;99.90
44069;DHT22;29738;51.234;5.484;2022-10-04T16:49:48;18.50;99.90
44069;DHT22;29738;51.234;5.484;2022-10-04T16:52:36;18.20;99.90
44069;DHT22;29738;51.234;5.484;2022-10-04T17:07:16;18.10;99.90
44069;DHT22;29738;51.234;5.484;2022-10-04T17:12:52;18.10;99.90
44069;DHT22;29738;51.234;5.484;2022-10-04T17:15:34;17.60;99.90
44069;DHT22;29738;51.234;5.484;2022-10-04T17:18:12;17.20;99.90
44069;DHT22;29738;51.234;5.484;2022-10-04T17:28:33;16.60;99.90
44069;DHT22;29738;51.234;5.484;2022-10-04T17:33:59;16.30;99.90
44069;DHT22;29738;51.234;5.484;2022-10-04T17:36:43;16.20;99.90
44069;DHT22;29738;51.234;5.484;2022-10-04T17:48:13;15.40;99.90
44069;DHT22;29738;51.234;5.484;2022-10-04T17:51:04;15.50;99.90
44069;DHT22;29738;51.234;5.484;2022-10-04T17:54:01;15.40;99.90
44069;DHT22;29738;51.234;5.484;2022-10-04T17:57:07;15.50;99.90
44069;DHT22;29738;51.234;5.484;2022-10-04T17:59:45;15.50;99.90
44069;DHT22;29738;51.234;5.484;2022-10-04T18:02:31;15.50;99.90
44069;DHT22;29738;51.234;5.484;2022-10-04T18:05:11;15.50;99.90
44069;DHT22;29738;51.234;5.484;2022-10-04T18:07:52;15.40;99.90
44069;DHT22;29738;51.234;5.484;2022-10-04T18:10:34;15.40;99.90
44069;DHT22;29738;51.234;5.484;2022-10-04T18:13:16;15.50;99.90
44069;DHT22;29738;51.234;5.484;2022-10-04T18:16:07;15.70;99.90
44069;DHT22;29738;51.234;5.484;2022-10-04T18:18:41;15.50;99.90
44069;DHT22;29738;51.234;5.484;2022-10-04T18:21:28;15.40;99.90
44069;DHT22;29738;51.234;5.484;2022-10-04T18:26:59;15.70;99.90
44069;DHT22;29738;51.234;5.484;2022-10-04T18:29:40;15.40;99.90
44069;DHT22;29738;51.234;5.484;2022-10-04T18:32:31;15.30;99.90
44069;DHT22;29738;51.234;5.484;2022-10-04T18:35:15;15.20;99.90
44069;DHT22;29738;51.234;5.484;2022-10-04T18:37:43;15.10;99.90
44069;DHT22;29738;51.234;5.484;2022-10-04T18:42:52;15.00;99.90
44069;DHT22;29738;51.234;5.484;2022-10-04T18:45:21;15.00;99.90
44069;DHT22;29738;51.234;5.484;2022-10-04T18:47:48;14.90;99.90
44069;DHT22;29738;51.234;5.484;2022-10-04T18:50:30;14.90;99.90
44069;DHT22;29738;51.234;5.484;2022-10-04T18:56:22;14.90;99.90
44069;DHT22;29738;51.234;5.484;2022-10-04T18:59:13;14.90;99.90
44069;DHT22;29738;51.234;5.484;2022-10-04T19:02:23;14.80;99.90
44069;DHT22;29738;51.234;5.484;2022-10-04T19:05:06;14.70;99.90
44069;DHT22;29738;51.234;5.484;2022-10-04T19:08:04;14.80;99.90
44069;DHT22;29738;51.234;5.484;2022-10-04T19:21:52;14.50;99.90
44069;DHT22;29738;51.234;5.484;2022-10-04T19:24:46;14.50;99.90
44069;DHT22;29738;51.234;5.484;2022-10-04T19:27:35;14.50;99.90
44069;DHT22;29738;51.234;5.484;2022-10-04T19:30:24;14.50;99.90
44069;DHT22;29738;51.234;5.484;2022-10-04T19:33:36;14.50;99.90
44069;DHT22;29738;51.234;5.484;2022-10-04T19:36:07;14.40;99.90
44069;DHT22;29738;51.234;5.484;2022-10-04T19:38:56;14.60;99.90
44069;DHT22;29738;51.234;5.484;2022-10-04T19:44:29;14.40;99.90
44069;DHT22;29738;51.234;5.484;2022-10-04T19:52:51;14.10;99.90
44069;DHT22;29738;51.234;5.484;2022-10-04T19:58:43;14.10;99.90
44069;DHT22;29738;51.234;5.484;2022-10-04T20:01:20;14.10;99.90
44069;DHT22;29738;51.234;5.484;2022-10-04T20:03:48;13.90;99.90
44069;DHT22;29738;51.234;5.484;2022-10-04T20:06:35;14.00;99.90
44069;DHT22;29738;51.234;5.484;2022-10-04T20:12:00;14.10;99.90
44069;DHT22;29738;51.234;5.484;2022-10-04T20:19:20;14.00;99.90
44069;DHT22;29738;51.234;5.484;2022-10-04T20:35:11;13.90;99.90
44069;DHT22;29738;51.234;5.484;2022-10-04T20:40:16;13.70;99.90
44069;DHT22;29738;51.234;5.484;2022-10-04T20:45:47;13.70;99.90
44069;DHT22;29738;51.234;5.484;2022-10-04T20:48:19;13.80;99.90
44069;DHT22;29738;51.234;5.484;2022-10-04T20:50:46;13.80;99.90
44069;DHT22;29738;51.234;5.484;2022-10-04T20:53:26;13.80;99.90
44069;DHT22;29738;51.234;5.484;2022-10-04T20:58:38;13.90;99.90
44069;DHT22;29738;51.234;5.484;2022-10-04T21:01:26;13.90;99.90
44069;DHT22;29738;51.234;5.484;2022-10-04T21:04:41;13.80;99.90
44069;DHT22;29738;51.234;5.484;2022-10-04T21:07:10;13.50;99.90
44069;DHT22;29738;51.234;5.484;2022-10-04T21:09:38;13.50;99.90
44069;DHT22;29738;51.234;5.484;2022-10-04T21:12:23;13.50;99.90
44069;DHT22;29738;51.234;5.484;2022-10-04T21:19:57;14.20;99.90
44069;DHT22;29738;51.234;5.484;2022-10-04T21:24:54;14.20;99.90
44069;DHT22;29738;51.234;5.484;2022-10-04T21:27:26;14.40;99.90
44069;DHT22;29738;51.234;5.484;2022-10-04T21:29:52;14.50;99.90
44069;DHT22;29738;51.234;5.484;2022-10-04T21:32:21;14.50;99.90
44069;DHT22;29738;51.234;5.484;2022-10-04T21:34:47;14.50;99.90
44069;DHT22;29738;51.234;5.484;2022-10-04T21:37:13;14.30;99.90
44069;DHT22;29738;51.234;5.484;2022-10-04T21:39:40;14.10;99.90
44069;DHT22;29738;51.234;5.484;2022-10-04T21:42:06;14.10;99.90
44069;DHT22;29738;51.234;5.484;2022-10-04T21:44:31;14.00;99.90
44069;DHT22;29738;51.234;5.484;2022-10-04T21:46:57;14.00;99.90
44069;DHT22;29738;51.234;5.484;2022-10-04T21:49:23;14.00;99.90
44069;DHT22;29738;51.234;5.484;2022-10-04T21:51:49;14.00;99.90
44069;DHT22;29738;51.234;5.484;2022-10-04T21:54:15;13.90;99.90
44069;DHT22;29738;51.234;5.484;2022-10-04T21:56:40;13.90;99.90
44069;DHT22;29738;51.234;5.484;2022-10-04T21:59:06;13.90;99.90
44069;DHT22;29738;51.234;5.484;2022-10-04T22:01:32;14.10;99.90
44069;DHT22;29738;51.234;5.484;2022-10-04T22:03:58;14.30;99.90
44069;DHT22;29738;51.234;5.484;2022-10-04T22:06:23;14.60;99.90
44069;DHT22;29738;51.234;5.484;2022-10-04T22:08:49;14.60;99.90
44069;DHT22;29738;51.234;5.484;2022-10-04T22:11:15;14.50;99.90
44069;DHT22;29738;51.234;5.484;2022-10-04T22:13:41;14.30;99.90
44069;DHT22;29738;51.234;5.484;2022-10-04T22:16:07;14.40;99.90
44069;DHT22;29738;51.234;5.484;2022-10-04T22:18:33;14.60;99.90
44069;DHT22;29738;51.234;5.484;2022-10-04T22:20:59;14.70;99.90
44069;DHT22;29738;51.234;5.484;2022-10-04T22:23:27;14.60;99.90
44069;DHT22;29738;51.234;5.484;2022-10-04T22:25:54;14.30;99.90
44069;DHT22;29738;51.234;5.484;2022-10-04T22:28:28;14.10;99.90
44069;DHT22;29738;51.234;5.484;2022-10-04T22:30:54;14.20;99.90
44069;DHT22;29738;51.234;5.484;2022-10-04T22:33:31;14.20;99.90
44069;DHT22;29738;51.234;5.484;2022-10-04T22:36:12;14.10;99.90
44069;DHT22;29738;51.234;5.484;2022-10-04T22:38:43;14.10;99.90
44069;DHT22;29738;51.234;5.484;2022-10-04T22:41:14;14.10;99.90
44069;DHT22;29738;51.234;5.484;2022-10-04T22:43:40;14.00;99.90
44069;DHT22;29738;51.234;5.484;2022-10-04T22:46:16;14.00;99.90
44069;DHT22;29738;51.234;5.484;2022-10-04T22:48:46;14.00;99.90
44069;DHT22;29738;51.234;5.484;2022-10-04T22:51:13;14.10;99.90
44069;DHT22;29738;51.234;5.484;2022-10-04T22:53:44;14.20;99.90
44069;DHT22;29738;51.234;5.484;2022-10-04T22:56:14;14.20;99.90
44069;DHT22;29738;51.234;5.484;2022-10-04T22:58:41;14.30;99.90
44069;DHT22;29738;51.234;5.484;2022-10-04T23:01:15;14.20;99.90
44069;DHT22;29738;51.234;5.484;2022-10-04T23:03:44;14.20;99.90
44069;DHT22;29738;51.234;5.484;2022-10-04T23:06:10;14.30;99.90
44069;DHT22;29738;51.234;5.484;2022-10-04T23:08:43;14.20;99.90
44069;DHT22;29738;51.234;5.484;2022-10-04T23:11:09;14.30;99.90
44069;DHT22;29738;51.234;5.484;2022-10-04T23:13:36;14.50;99.90
44069;DHT22;29738;51.234;5.484;2022-10-04T23:16:11;14.40;99.90
44069;DHT22;29738;51.234;5.484;2022-10-04T23:18:39;14.30;99.90
44069;DHT22;29738;51.234;5.484;2022-10-04T23:21:17;14.40;99.90
44069;DHT22;29738;51.234;5.484;2022-10-04T23:23:44;14.50;99.90
44069;DHT22;29738;51.234;5.484;2022-10-04T23:26:20;14.60;99.90
44069;DHT22;29738;51.234;5.484;2022-10-04T23:28:46;14.50;99.90
44069;DHT22;29738;51.234;5.484;2022-10-04T23:31:23;14.50;99.90
44069;DHT22;29738;51.234;5.484;2022-10-04T23:33:50;14.50;99.90
44069;DHT22;29738;51.234;5.484;2022-10-04T23:36:17;14.50;99.90
44069;DHT22;29738;51.234;5.484;2022-10-04T23:38:49;14.50;99.90
44069;DHT22;29738;51.234;5.484;2022-10-04T23:41:17;14.50;99.90
44069;DHT22;29738;51.234;5.484;2022-10-04T23:43:44;14.50;99.90
44069;DHT22;29738;51.234;5.484;2022-10-04T23:46:15;14.50;99.90
44069;DHT22;29738;51.234;5.484;2022-10-04T23:48:42;14.40;99.90
44069;DHT22;29738;51.234;5.484;2022-10-04T23:51:11;14.40;99.90
44069;DHT22;29738;51.234;5.484;2022-10-04T23:53:39;14.40;99.90
44069;DHT22;29738;51.234;5.484;2022-10-04T23:56:16;14.40;99.90
44069;DHT22;29738;51.234;5.484;2022-10-04T23:58:43;14.40;99.90
